Time;durP1;ratioP1;P1;durP2;ratioP2;P2;SDS_P1;SDS_P2;PMS_P1;PMS_P2;Temp;Humidity;BMP_temperature;BMP_pressure;BME280_temperature;BME280_humidity;BME280_pressure;Samples;Min_cycle;Max_cycle;Signal;HPM_P1;HPM_P2
2023/12/21 00:00:51;;;;;;;;;;;;;;;3.68;95.82;99524.80;105490;1284;67200;-55
2023/12/21 00:03:37;;;;;;;;;;;;;;;3.64;96.02;99518.19;105544;1286;71199;-55
2023/12/21 00:06:23;;;;;;;;;;;;;;;3.62;96.13;99512.42;105484;1283;61157;-56
2023/12/21 00:09:09;;;;;;;;;;;;;;;3.61;96.02;99513.63;104991;1288;616096;-56
2023/12/21 00:11:56;;;;;;;;;;;;;;;3.61;95.97;99514.98;105457;1283;76084;-55
2023/12/21 00:14:42;;;;;;;;;;;;;;;3.60;96.07;99513.46;105539;1283;67261;-56
2023/12/21 00:17:28;;;;;;;;;;;;;;;3.59;96.07;99511.94;105550;1286;71629;-54
2023/12/21 00:20:14;;;;;;;;;;;;;;;3.57;96.00;99499.84;105516;1283;61151;-55
2023/12/21 00:23:01;;;;;;;;;;;;;;;3.56;96.50;99496.61;105498;1283;61284;-54
2023/12/21 00:25:47;;;;;;;;;;;;;;;3.56;96.37;99490.83;105498;1283;77365;-56
2023/12/21 00:28:34;;;;;;;;;;;;;;;3.54;96.69;99485.20;105555;1285;69445;-56
2023/12/21 00:31:20;;;;;;;;;;;;;;;3.53;96.19;99483.51;105524;1283;71248;-56
2023/12/21 00:34:06;;;;;;;;;;;;;;;3.52;96.68;99479.09;105556;1283;61381;-53
2023/12/21 00:36:52;;;;;;;;;;;;;;;3.51;97.23;99480.11;105591;1283;61234;-55
2023/12/21 00:39:38;;;;;;;;;;;;;;;3.51;97.42;99473.30;105587;1283;73218;-56
2023/12/21 00:42:25;;;;;;;;;;;;;;;3.50;96.84;99465.64;105531;1283;67211;-56
2023/12/21 00:45:11;;;;;;;;;;;;;;;3.50;96.62;99459.67;105519;1286;71501;-56
2023/12/21 00:47:57;;;;;;;;;;;;;;;3.49;97.00;99453.04;101457;1286;5003780;-57
2023/12/21 00:50:43;;;;;;;;;;;;;;;3.48;97.15;99453.05;106082;1285;61275;-55
2023/12/21 00:53:29;;;;;;;;;;;;;;;3.47;97.48;99448.45;105554;1283;73239;-56
2023/12/21 00:56:15;;;;;;;;;;;;;;;3.46;98.12;99448.63;105553;1288;67219;-56
2023/12/21 00:59:04;;;;;;;;;;;;;;;3.45;97.25;99442.49;105510;1283;71236;-55
2023/12/21 01:01:50;;;;;;;;;;;;;;;3.46;98.05;99441.82;106442;1283;95792;-57
2023/12/21 01:04:35;;;;;;;;;;;;;;;3.46;97.49;99438.06;106511;1283;59469;-54
2023/12/21 01:07:22;;;;;;;;;;;;;;;3.46;97.71;99428.70;105504;1285;75608;-55
2023/12/21 01:10:08;;;;;;;;;;;;;;;3.45;97.74;99418.66;105557;1283;70041;-55
2023/12/21 01:12:55;;;;;;;;;;;;;;;3.45;97.82;99411.84;106864;1283;71262;-57
2023/12/21 01:15:41;;;;;;;;;;;;;;;3.43;97.91;99410.83;106448;1283;61282;-55
2023/12/21 01:18:27;;;;;;;;;;;;;;;3.43;97.47;99406.73;105549;1286;61150;-55
2023/12/21 01:21:14;;;;;;;;;;;;;;;3.42;97.56;99400.61;105566;1283;78550;-54
2023/12/21 01:24:00;;;;;;;;;;;;;;;3.39;97.91;99393.98;105546;1283;69415;-53
2023/12/21 01:26:46;;;;;;;;;;;;;;;3.38;97.72;99389.06;105542;1283;74030;-54
2023/12/21 01:29:32;;;;;;;;;;;;;;;3.36;97.65;99375.27;105576;1287;61255;-55
2023/12/21 01:32:18;;;;;;;;;;;;;;;3.33;98.03;99369.16;105559;1283;61637;-56
2023/12/21 01:35:04;;;;;;;;;;;;;;;3.32;97.74;99364.06;105540;1286;77439;-56
2023/12/21 01:37:50;;;;;;;;;;;;;;;3.30;98.04;99352.83;105529;1283;68901;-58
2023/12/21 01:40:36;;;;;;;;;;;;;;;3.27;97.76;99347.23;105490;1287;71286;-57
2023/12/21 01:43:22;;;;;;;;;;;;;;;3.25;98.59;99342.13;105553;1283;61183;-58
2023/12/21 01:46:09;;;;;;;;;;;;;;;3.25;98.42;99340.60;105582;1283;61154;-57
2023/12/21 01:48:56;;;;;;;;;;;;;;;3.23;98.70;99334.48;105513;1283;75024;-57
2023/12/21 01:51:42;;;;;;;;;;;;;;;3.23;98.22;99334.66;105575;1283;68237;-55
2023/12/21 01:54:28;;;;;;;;;;;;;;;3.22;98.48;99323.59;105483;1283;71185;-56
2023/12/21 01:57:15;;;;;;;;;;;;;;;3.19;98.82;99320.04;105543;1283;61284;-58
2023/12/21 02:00:01;;;;;;;;;;;;;;;3.18;98.33;99309.48;105549;1283;61263;-57
2023/12/21 02:02:47;;;;;;;;;;;;;;;3.16;98.34;99301.33;105564;1283;72915;-58
2023/12/21 02:05:33;;;;;;;;;;;;;;;3.14;98.20;99293.85;105528;1283;66689;-58
2023/12/21 02:08:19;;;;;;;;;;;;;;;3.12;98.63;99286.20;105558;1286;71180;-57
2023/12/21 02:11:07;;;;;;;;;;;;;;;3.11;99.19;99279.27;105517;1283;61227;-57
2023/12/21 02:13:53;;;;;;;;;;;;;;;3.08;99.07;99270.42;105602;1284;61111;-56
2023/12/21 02:16:45;;;;;;;;;;;;;;;3.07;98.92;99263.29;105597;1283;73160;-57
2023/12/21 02:19:32;;;;;;;;;;;;;;;3.07;99.02;99254.61;105591;1283;69461;-58
2023/12/21 02:22:19;;;;;;;;;;;;;;;3.04;98.85;99243.39;105548;1283;70301;-58
2023/12/21 02:25:05;;;;;;;;;;;;;;;3.02;98.79;99235.92;105535;1283;61151;-57
2023/12/21 02:27:51;;;;;;;;;;;;;;;3.01;98.81;99229.97;105538;1286;61164;-58
2023/12/21 02:30:38;;;;;;;;;;;;;;;3.00;99.10;99218.06;105565;1283;73338;-57
2023/12/21 02:33:24;;;;;;;;;;;;;;;2.99;99.46;99213.64;105588;1283;68417;-58
2023/12/21 02:36:10;;;;;;;;;;;;;;;2.98;99.56;99205.81;105582;1283;71198;-57
2023/12/21 02:38:56;;;;;;;;;;;;;;;2.98;99.60;99199.69;105586;1283;61163;-58
2023/12/21 02:41:42;;;;;;;;;;;;;;;2.97;99.27;99192.73;105539;1285;61145;-57
2023/12/21 02:44:28;;;;;;;;;;;;;;;2.97;99.05;99181.48;105602;1286;73408;-58
2023/12/21 02:47:14;;;;;;;;;;;;;;;2.96;99.15;99175.02;105617;1283;69590;-56
2023/12/21 02:50:01;;;;;;;;;;;;;;;2.95;99.42;99165.67;105560;1286;71219;-57
2023/12/21 02:52:48;;;;;;;;;;;;;;;2.94;99.64;99160.06;105507;1285;61172;-56
2023/12/21 02:55:35;;;;;;;;;;;;;;;2.94;99.61;99154.79;105631;1283;59517;-58
2023/12/21 02:58:23;;;;;;;;;;;;;;;2.93;99.43;99141.19;105613;1283;76633;-57
2023/12/21 03:01:09;;;;;;;;;;;;;;;2.93;98.98;99124.34;105630;1283;67245;-57
2023/12/21 03:03:55;;;;;;;;;;;;;;;2.93;98.94;99103.06;105535;1283;73970;-58
2023/12/21 03:06:42;;;;;;;;;;;;;;;2.93;98.63;99087.74;105669;1283;61319;-57
2023/12/21 03:09:29;;;;;;;;;;;;;;;2.93;98.62;99077.88;105460;1286;61324;-57
2023/12/21 03:12:15;;;;;;;;;;;;;;;2.93;98.51;99074.13;105474;1283;79054;-58
2023/12/21 03:15:02;;;;;;;;;;;;;;;2.93;99.00;99068.17;105530;1285;73324;-57
2023/12/21 03:17:48;;;;;;;;;;;;;;;2.92;99.16;99056.95;105477;1286;72942;-58
2023/12/21 03:20:34;;;;;;;;;;;;;;;2.93;98.91;99049.27;105628;1283;61345;-58
2023/12/21 03:23:20;;;;;;;;;;;;;;;2.93;99.19;99046.89;105525;1284;63150;-57
2023/12/21 03:26:07;;;;;;;;;;;;;;;2.94;99.24;99048.59;105431;1283;72327;-58
2023/12/21 03:28:53;;;;;;;;;;;;;;;2.94;99.03;99045.52;105535;1286;68299;-58
2023/12/21 03:31:39;;;;;;;;;;;;;;;2.96;99.14;99037.68;101871;1286;5003512;-57
2023/12/21 03:34:26;;;;;;;;;;;;;;;2.97;98.90;99032.73;105418;1285;61128;-57
2023/12/21 03:37:12;;;;;;;;;;;;;;;2.98;99.54;99025.05;105539;1286;72786;-57
2023/12/21 03:39:58;;;;;;;;;;;;;;;2.99;99.10;99016.88;105618;1283;71402;-58
2023/12/21 03:42:45;;;;;;;;;;;;;;;3.01;99.53;99007.66;105609;1283;72086;-58
2023/12/21 03:45:32;;;;;;;;;;;;;;;3.02;99.17;98998.97;105558;1283;61057;-57
2023/12/21 03:48:18;;;;;;;;;;;;;;;3.04;99.17;98993.67;105528;1286;59302;-57
2023/12/21 03:51:04;;;;;;;;;;;;;;;3.05;98.92;98984.80;105615;1283;75902;-58
2023/12/21 03:53:50;;;;;;;;;;;;;;;3.07;98.81;98973.38;105624;1283;68011;-58
2023/12/21 03:56:39;;;;;;;;;;;;;;;3.08;98.41;98966.22;105562;1284;72095;-58
2023/12/21 03:59:26;;;;;;;;;;;;;;;3.08;99.45;98956.67;106021;1283;61151;-56
2023/12/21 04:02:12;;;;;;;;;;;;;;;3.09;99.15;98944.77;105548;1285;61408;-56
2023/12/21 04:04:58;;;;;;;;;;;;;;;3.10;98.78;98938.10;105595;1283;73179;-58
2023/12/21 04:07:44;;;;;;;;;;;;;;;3.12;98.66;98936.70;105586;1286;69936;-57
2023/12/21 04:10:30;;;;;;;;;;;;;;;3.13;98.48;98925.44;105558;1283;74059;-58
2023/12/21 04:13:16;;;;;;;;;;;;;;;3.14;98.83;98918.45;105512;1283;60165;-58
2023/12/21 04:16:03;;;;;;;;;;;;;;;3.14;98.64;98919.98;105552;1283;61272;-57
2023/12/21 04:18:49;;;;;;;;;;;;;;;3.16;99.23;98914.34;105569;1283;73222;-58
2023/12/21 04:21:35;;;;;;;;;;;;;;;3.17;99.41;98905.13;105478;1286;71716;-58
2023/12/21 04:24:21;;;;;;;;;;;;;;;3.19;99.31;98902.38;105535;1283;72198;-56
2023/12/21 04:27:07;;;;;;;;;;;;;;;3.20;99.91;98894.70;105494;1287;61378;-57
2023/12/21 04:29:54;;;;;;;;;;;;;;;3.22;99.95;98891.43;105573;1283;61171;-58
2023/12/21 04:32:41;;;;;;;;;;;;;;;3.23;100.00;98882.73;105532;1283;76018;-58
2023/12/21 04:35:27;;;;;;;;;;;;;;;3.25;100.00;98869.26;105551;1286;71049;-58
2023/12/21 04:38:13;;;;;;;;;;;;;;;3.27;100.00;98870.92;105567;1288;71893;-58
2023/12/21 04:40:59;;;;;;;;;;;;;;;3.30;100.00;98883.30;105571;1283;61220;-57
2023/12/21 04:43:45;;;;;;;;;;;;;;;3.31;100.00;98879.55;105592;1283;61260;-57
2023/12/21 04:46:31;;;;;;;;;;;;;;;3.34;100.00;98876.61;105516;1283;75269;-55
2023/12/21 04:49:20;;;;;;;;;;;;;;;3.36;100.00;98876.42;105572;1283;67299;-56
2023/12/21 04:52:06;;;;;;;;;;;;;;;3.39;100.00;98865.98;105532;1283;72273;-55
2023/12/21 04:54:52;;;;;;;;;;;;;;;3.42;100.00;98860.98;105603;1283;61327;-56
2023/12/21 04:57:38;;;;;;;;;;;;;;;3.46;100.00;98854.81;105605;1283;61010;-57
2023/12/21 05:00:25;;;;;;;;;;;;;;;3.47;100.00;98853.09;105628;1287;73255;-57
2023/12/21 05:03:11;;;;;;;;;;;;;;;3.48;100.00;98843.19;105372;1285;68041;-56
2023/12/21 05:05:58;;;;;;;;;;;;;;;3.49;100.00;98830.90;105530;1287;71180;-55
2023/12/21 05:08:44;;;;;;;;;;;;;;;3.53;100.00;98838.52;105570;1283;61419;-55
2023/12/21 05:11:30;;;;;;;;;;;;;;;3.54;100.00;98833.90;105497;1286;61161;-56
2023/12/21 05:14:16;;;;;;;;;;;;;;;3.56;100.00;98831.48;105594;1286;74968;-57
2023/12/21 05:17:02;;;;;;;;;;;;;;;3.59;100.00;98836.36;105527;1283;67473;-56
2023/12/21 05:19:48;;;;;;;;;;;;;;;3.61;100.00;98836.86;105496;1285;71261;-56
2023/12/21 05:22:34;;;;;;;;;;;;;;;3.62;100.00;98836.15;106068;1283;206802;-57
2023/12/21 05:25:20;;;;;;;;;;;;;;;3.63;100.00;98829.30;106777;1283;60022;-55
2023/12/21 05:28:07;;;;;;;;;;;;;;;3.69;100.00;98818.45;105427;1283;73279;-56
2023/12/21 05:30:53;;;;;;;;;;;;;;;3.73;100.00;98812.77;105521;1283;67252;-56
2023/12/21 05:33:39;;;;;;;;;;;;;;;3.78;100.00;98814.73;105597;1283;73992;-57
2023/12/21 05:36:26;;;;;;;;;;;;;;;3.82;100.00;98817.19;105483;1288;61323;-56
2023/12/21 05:39:13;;;;;;;;;;;;;;;3.85;100.00;98811.19;105501;1283;61167;-56
2023/12/21 05:41:59;;;;;;;;;;;;;;;3.90;100.00;98803.27;105486;1283;73632;-55
2023/12/21 05:44:45;;;;;;;;;;;;;;;3.94;100.00;98799.61;105478;1283;67263;-56
2023/12/21 05:47:32;;;;;;;;;;;;;;;3.97;100.00;98799.88;105496;1283;71161;-57
2023/12/21 05:50:18;;;;;;;;;;;;;;;4.00;100.00;98794.39;105467;1283;61262;-55
2023/12/21 05:53:04;;;;;;;;;;;;;;;4.04;100.00;98789.72;105449;1284;60460;-56
2023/12/21 05:55:50;;;;;;;;;;;;;;;4.05;100.00;98783.38;105528;1283;75699;-57
2023/12/21 05:58:36;;;;;;;;;;;;;;;4.07;100.00;98782.31;105477;1283;67752;-56
2023/12/21 06:01:23;;;;;;;;;;;;;;;4.11;100.00;98776.96;105500;1287;71669;-56
2023/12/21 06:04:09;;;;;;;;;;;;;;;4.14;100.00;98769.06;105533;1283;61289;-56
2023/12/21 06:06:56;;;;;;;;;;;;;;;4.17;100.00;98768.63;105515;1284;61138;-56
2023/12/21 06:09:42;;;;;;;;;;;;;;;4.20;100.00;98768.90;105537;1283;73187;-56
2023/12/21 06:12:29;;;;;;;;;;;;;;;4.24;100.00;98767.46;105159;1288;615865;-57
2023/12/21 06:15:17;;;;;;;;;;;;;;;4.27;100.00;98759.89;105517;1288;71092;-56
2023/12/21 06:18:03;;;;;;;;;;;;;;;4.29;100.00;98751.31;105543;1283;61515;-56
2023/12/21 06:20:49;;;;;;;;;;;;;;;4.32;100.00;98744.94;105545;1283;61035;-56
2023/12/21 06:23:35;;;;;;;;;;;;;;;4.37;100.00;98748.77;105576;1283;73240;-56
2023/12/21 06:26:21;;;;;;;;;;;;;;;4.40;100.00;98746.14;105579;1283;67275;-58
2023/12/21 06:29:08;;;;;;;;;;;;;;;4.44;100.00;98745.05;105482;1285;71279;-57
2023/12/21 06:31:54;;;;;;;;;;;;;;;4.47;100.00;98741.39;106869;1282;58836;-56
2023/12/21 06:34:40;;;;;;;;;;;;;;;4.51;100.00;98740.98;106882;1284;59090;-58
2023/12/21 06:37:25;;;;;;;;;;;;;;;4.53;100.00;98736.13;106834;1285;74382;-57
2023/12/21 06:40:11;;;;;;;;;;;;;;;4.57;100.00;98725.83;106894;1283;67248;-57
2023/12/21 06:42:57;;;;;;;;;;;;;;;4.61;100.00;98724.88;106896;1283;71449;-57
2023/12/21 06:45:43;;;;;;;;;;;;;;;4.65;100.00;98718.80;106683;1283;59485;-56
2023/12/21 06:48:29;;;;;;;;;;;;;;;4.70;100.00;98718.02;106919;1283;59932;-57
2023/12/21 06:51:15;;;;;;;;;;;;;;;4.73;100.00;98717.40;106883;1283;73333;-57
2023/12/21 06:54:01;;;;;;;;;;;;;;;4.76;100.00;98712.90;106925;1283;67350;-56
2023/12/21 06:56:47;;;;;;;;;;;;;;;4.79;100.00;98709.75;106805;1283;72326;-56
2023/12/21 06:59:33;;;;;;;;;;;;;;;4.83;100.00;98707.10;105556;1283;61619;-56
2023/12/21 07:02:20;;;;;;;;;;;;;;;4.86;100.00;98701.74;105529;1283;61129;-56
2023/12/21 07:05:06;;;;;;;;;;;;;;;4.89;100.00;98697.41;105544;1283;73246;-55
2023/12/21 07:07:55;;;;;;;;;;;;;;;4.92;100.00;98692.91;106922;1283;67320;-56
2023/12/21 07:10:41;;;;;;;;;;;;;;;4.94;100.00;98688.26;106794;1286;72020;-56
2023/12/21 07:13:26;;;;;;;;;;;;;;;4.96;100.00;98680.85;106916;1283;59258;-58
2023/12/21 07:16:12;;;;;;;;;;;;;;;5.00;100.00;98675.30;106882;1283;59980;-59
2023/12/21 07:18:58;;;;;;;;;;;;;;;5.04;100.00;98668.70;106903;1283;73374;-56
2023/12/21 07:21:44;;;;;;;;;;;;;;;5.09;100.00;98661.73;106901;1283;68575;-56
2023/12/21 07:24:30;;;;;;;;;;;;;;;5.14;100.00;98659.58;106886;1283;71174;-55
2023/12/21 07:27:16;;;;;;;;;;;;;;;5.18;100.00;98653.84;106894;1287;59399;-55
2023/12/21 07:30:04;;;;;;;;;;;;;;;5.21;100.00;98646.38;106918;1283;59935;-55
2023/12/21 07:32:49;;;;;;;;;;;;;;;5.25;100.00;98635.69;106949;1283;73876;-54
2023/12/21 07:35:35;;;;;;;;;;;;;;;5.29;100.00;98630.95;106864;1285;69527;-54
2023/12/21 07:38:21;;;;;;;;;;;;;;;5.35;100.00;98625.69;106904;1283;71297;-54
2023/12/21 07:41:08;;;;;;;;;;;;;;;5.38;100.00;98626.29;106901;1286;58682;-55
2023/12/21 07:43:54;;;;;;;;;;;;;;;5.41;100.00;98621.08;106872;1283;59172;-54
2023/12/21 07:46:40;;;;;;;;;;;;;;;5.46;100.00;98611.38;106943;1283;73177;-54
2023/12/21 07:49:25;;;;;;;;;;;;;;;5.51;100.00;98602.35;106891;1283;67448;-54
2023/12/21 07:52:11;;;;;;;;;;;;;;;5.56;100.00;98591.95;106866;1285;71246;-56
2023/12/21 07:54:57;;;;;;;;;;;;;;;5.60;100.00;98582.80;106901;1283;59926;-54
2023/12/21 07:57:43;;;;;;;;;;;;;;;5.63;100.00;98574.85;106927;1283;60565;-55
2023/12/21 08:00:29;;;;;;;;;;;;;;;5.67;100.00;98576.11;106936;1283;74581;-55
2023/12/21 08:03:14;;;;;;;;;;;;;;;5.70;100.00;98570.21;106919;1283;67612;-55
2023/12/21 08:06:00;;;;;;;;;;;;;;;5.73;100.00;98566.66;106699;1284;71407;-54
2023/12/21 08:08:47;;;;;;;;;;;;;;;5.77;100.00;98560.05;105563;1283;61144;-55
2023/12/21 08:11:33;;;;;;;;;;;;;;;5.80;100.00;98546.11;105563;1283;60025;-55
2023/12/21 08:14:20;;;;;;;;;;;;;;;5.83;100.00;98541.57;105580;1283;76630;-52
2023/12/21 08:17:09;;;;;;;;;;;;;;;5.87;100.00;98531.02;105532;1286;67201;-51
2023/12/21 08:19:56;;;;;;;;;;;;;;;5.91;100.00;98528.55;105636;1288;74047;-53
2023/12/21 08:22:43;;;;;;;;;;;;;;;5.94;100.00;98519.55;105501;1288;61704;-52
2023/12/21 08:25:31;;;;;;;;;;;;;;;5.96;100.00;98509.40;105606;1283;61339;-53
2023/12/21 08:28:17;;;;;;;;;;;;;;;6.02;100.00;98503.21;105512;1284;307474;-50
2023/12/21 08:31:03;;;;;;;;;;;;;;;6.07;100.00;98499.82;106861;1283;67584;-56
2023/12/21 08:33:49;;;;;;;;;;;;;;;6.10;100.00;98495.27;106875;1283;70233;-56
2023/12/21 08:36:36;;;;;;;;;;;;;;;6.14;100.00;98491.05;106895;1286;59031;-55
2023/12/21 08:39:21;;;;;;;;;;;;;;;6.16;100.00;98480.55;106931;1283;58956;-56
2023/12/21 08:42:10;;;;;;;;;;;;;;;6.17;100.00;98471.95;106917;1283;73437;-56
2023/12/21 08:44:59;;;;;;;;;;;;;;;6.18;100.00;98465.92;106886;1283;67269;-54
2023/12/21 08:47:45;;;;;;;;;;;;;;;6.20;100.00;98454.41;106924;1283;72047;-53
2023/12/21 08:50:31;;;;;;;;;;;;;;;6.19;100.00;98443.83;106883;1287;58990;-54
2023/12/21 08:53:16;;;;;;;;;;;;;;;6.21;100.00;98438.48;106847;1285;60483;-53
2023/12/21 08:56:03;;;;;;;;;;;;;;;6.22;100.00;98434.48;106851;1283;74608;-54
2023/12/21 08:58:48;;;;;;;;;;;;;;;6.23;100.00;98431.06;106962;1283;67199;-53
2023/12/21 09:01:34;;;;;;;;;;;;;;;6.23;100.00;98435.66;106854;1283;71076;-56
2023/12/21 09:04:20;;;;;;;;;;;;;;;6.26;100.00;98427.31;106870;1283;59209;-57
2023/12/21 09:07:06;;;;;;;;;;;;;;;6.27;100.00;98421.46;106912;1284;59361;-55
2023/12/21 09:09:52;;;;;;;;;;;;;;;6.30;100.00;98408.87;106857;1284;72290;-55
2023/12/21 09:12:38;;;;;;;;;;;;;;;6.34;100.00;98400.21;106847;1283;67447;-56
2023/12/21 09:15:24;;;;;;;;;;;;;;;6.36;100.00;98385.40;106869;1287;71402;-55
2023/12/21 09:18:10;;;;;;;;;;;;;;;6.39;100.00;98373.67;106838;1286;58968;-54
2023/12/21 09:20:56;;;;;;;;;;;;;;;6.41;100.00;98360.93;106936;1283;59601;-53
2023/12/21 09:23:42;;;;;;;;;;;;;;;6.44;100.00;98348.34;106957;1283;73057;-56
2023/12/21 09:26:27;;;;;;;;;;;;;;;6.46;100.00;98332.69;106933;1283;67513;-56
2023/12/21 09:29:13;;;;;;;;;;;;;;;6.48;100.00;98321.85;106904;1284;72377;-55
2023/12/21 09:31:59;;;;;;;;;;;;;;;6.50;100.00;98318.67;106866;1283;58972;-55
2023/12/21 09:34:47;;;;;;;;;;;;;;;6.51;100.00;98309.92;106923;1283;58912;-56
2023/12/21 09:37:35;;;;;;;;;;;;;;;6.52;100.00;98298.94;106905;1283;74571;-55
2023/12/21 09:40:24;;;;;;;;;;;;;;;6.53;100.00;98286.20;106933;1283;68047;-55
2023/12/21 09:43:13;;;;;;;;;;;;;;;6.54;100.00;98282.23;106880;1285;71375;-56
2023/12/21 09:45:59;;;;;;;;;;;;;;;6.56;100.00;98279.09;106906;1283;59183;-56
2023/12/21 09:48:46;;;;;;;;;;;;;;;6.57;100.00;98268.09;106957;1283;58862;-56
2023/12/21 09:51:33;;;;;;;;;;;;;;;6.57;100.00;98258.84;106848;1283;73332;-56
2023/12/21 09:54:19;;;;;;;;;;;;;;;6.57;100.00;98245.83;106915;1283;67484;-56
2023/12/21 09:57:05;;;;;;;;;;;;;;;6.57;100.00;98234.23;106904;1283;72489;-56
2023/12/21 09:59:52;;;;;;;;;;;;;;;6.58;100.00;98224.93;106876;1283;58957;-55
2023/12/21 10:02:38;;;;;;;;;;;;;;;6.59;100.00;98213.08;106883;1285;58824;-56
2023/12/21 10:05:24;;;;;;;;;;;;;;;6.61;100.00;98205.95;106936;1283;74579;-55
2023/12/21 10:08:10;;;;;;;;;;;;;;;6.61;100.00;98194.84;106884;1286;68424;-56
2023/12/21 10:10:55;;;;;;;;;;;;;;;6.59;100.00;98184.84;106903;1283;72742;-56
2023/12/21 10:13:46;;;;;;;;;;;;;;;6.58;100.00;98174.77;106742;1283;59005;-56
2023/12/21 10:16:31;;;;;;;;;;;;;;;6.57;100.00;98168.46;106837;1283;59213;-55
2023/12/21 10:19:17;;;;;;;;;;;;;;;6.57;100.00;98160.61;106854;1283;73383;-56
2023/12/21 10:22:03;;;;;;;;;;;;;;;6.56;100.00;98150.18;106829;1283;68585;-56
2023/12/21 10:24:51;;;;;;;;;;;;;;;6.56;100.00;98144.55;106826;1288;71062;-56
2023/12/21 10:27:36;;;;;;;;;;;;;;;6.57;100.00;98134.26;106854;1283;59005;-56
2023/12/21 10:30:26;;;;;;;;;;;;;;;6.55;100.00;98124.59;106838;1283;59917;-55
2023/12/21 10:33:15;;;;;;;;;;;;;;;6.54;100.00;98113.16;106845;1283;73096;-56
2023/12/21 10:36:02;;;;;;;;;;;;;;;6.52;100.00;98102.63;106896;1283;67530;-56
2023/12/21 10:38:49;;;;;;;;;;;;;;;6.51;100.00;98090.50;105515;1289;71396;-56
2023/12/21 10:41:35;;;;;;;;;;;;;;;6.47;100.00;98080.91;105603;1285;61127;-56
2023/12/21 10:44:21;;;;;;;;;;;;;;;6.43;100.00;98070.80;105604;1288;61112;-56
2023/12/21 10:47:07;;;;;;;;;;;;;;;6.41;100.00;98058.06;105675;1283;73149;-53
2023/12/21 10:49:54;;;;;;;;;;;;;;;6.38;100.00;98043.29;105648;1283;68049;-55
2023/12/21 10:52:41;;;;;;;;;;;;;;;6.38;100.00;98035.44;101868;1283;5003699;-57
2023/12/21 10:55:28;;;;;;;;;;;;;;;6.36;100.00;98020.27;105614;1283;61381;-56
2023/12/21 10:58:15;;;;;;;;;;;;;;;6.35;100.00;98012.79;105676;1283;61176;-55
2023/12/21 11:01:06;;;;;;;;;;;;;;;6.35;100.00;98003.90;105466;1288;73164;-56
2023/12/21 11:03:52;;;;;;;;;;;;;;;6.34;100.00;97995.88;105509;1286;68031;-57
2023/12/21 11:06:41;;;;;;;;;;;;;;;6.35;100.00;97985.75;105468;1288;71660;-56
2023/12/21 11:09:31;;;;;;;;;;;;;;;6.36;100.00;97975.80;105459;1286;61267;-56
2023/12/21 11:12:17;;;;;;;;;;;;;;;6.36;100.00;97968.93;105489;1286;61282;-57
2023/12/21 11:15:04;;;;;;;;;;;;;;;6.35;100.00;97958.38;105509;1284;73414;-57
2023/12/21 11:17:59;;;;;;;;;;;;;;;6.35;100.00;97948.11;105475;1283;68387;-57
2023/12/21 11:20:48;;;;;;;;;;;;;;;6.36;100.00;97936.96;105340;1288;71206;-56
2023/12/21 11:23:40;;;;;;;;;;;;;;;6.36;100.00;97925.16;105494;1283;61176;-57
2023/12/21 11:26:27;;;;;;;;;;;;;;;6.36;100.00;97908.39;105537;1283;61132;-58
2023/12/21 11:29:13;;;;;;;;;;;;;;;6.37;100.00;97901.30;105473;1287;73201;-57
2023/12/21 11:32:05;;;;;;;;;;;;;;;6.36;100.00;97887.84;105461;1288;67234;-57
2023/12/21 11:34:51;;;;;;;;;;;;;;;6.36;100.00;97872.80;105462;1288;70652;-57
2023/12/21 11:37:39;;;;;;;;;;;;;;;6.36;100.00;97861.35;102519;1285;5003358;-58
2023/12/21 11:40:25;;;;;;;;;;;;;;;6.36;100.00;97851.91;106843;1283;58965;-59
2023/12/21 11:43:19;;;;;;;;;;;;;;;6.36;100.00;97839.58;106857;1283;72962;-58
2023/12/21 11:46:07;;;;;;;;;;;;;;;6.37;100.00;97828.77;106876;1285;67408;-56
2023/12/21 11:48:53;;;;;;;;;;;;;;;6.38;100.00;97811.30;106886;1287;71359;-56
2023/12/21 11:51:46;;;;;;;;;;;;;;;6.38;100.00;97797.27;106826;1284;58977;-57
2023/12/21 11:54:31;;;;;;;;;;;;;;;6.38;100.00;97791.42;106843;1283;59017;-57
2023/12/21 11:57:17;;;;;;;;;;;;;;;6.39;100.00;97777.02;106820;1283;73785;-57
2023/12/21 12:00:07;;;;;;;;;;;;;;;6.40;100.00;97766.71;106741;1283;68708;-58
2023/12/21 12:02:53;;;;;;;;;;;;;;;6.40;100.00;97752.52;106654;1283;222697;-58
2023/12/21 12:05:39;;;;;;;;;;;;;;;6.41;100.00;97746.98;99135;1287;10001709;-59
2023/12/21 12:08:25;;;;;;;;;;;;;;;6.42;100.00;97727.63;105582;1286;61164;-56
2023/12/21 12:11:13;;;;;;;;;;;;;;;6.43;100.00;97717.32;105424;1289;71275;-57
2023/12/21 12:13:59;;;;;;;;;;;;;;;6.43;100.00;97719.18;105522;1285;61180;-56
2023/12/21 12:16:50;;;;;;;;;;;;;;;6.42;100.00;97696.98;86460;1288;20001998;-57
2023/12/21 12:19:56;;;;;;;;;;;;;;;6.42;100.00;97693.72;69994;1283;20058246;-57
2023/12/21 12:22:43;;;;;;;;;;;;;;;6.42;100.00;97680.23;105664;1283;61332;-56
2023/12/21 12:25:29;;;;;;;;;;;;;;;6.42;100.00;97660.73;105641;1283;61148;-56
2023/12/21 12:28:17;;;;;;;;;;;;;;;6.42;100.00;97661.24;105629;1285;73150;-57
2023/12/21 12:31:03;;;;;;;;;;;;;;;6.45;100.00;97654.74;105560;1288;67200;-54
2023/12/21 12:33:49;;;;;;;;;;;;;;;6.44;100.00;97635.11;105577;1287;73439;-55
2023/12/21 12:36:35;;;;;;;;;;;;;;;6.45;100.00;97626.53;105502;1283;61272;-56
2023/12/21 12:39:21;;;;;;;;;;;;;;;6.47;100.00;97610.36;105580;1288;61179;-55
2023/12/21 12:42:09;;;;;;;;;;;;;;;6.47;100.00;97589.29;105545;1283;73286;-55
2023/12/21 12:44:55;;;;;;;;;;;;;;;6.47;100.00;97578.66;105543;1288;67940;-56
2023/12/21 12:47:41;;;;;;;;;;;;;;;6.47;100.00;97573.54;105420;1288;71173;-57
2023/12/21 12:50:28;;;;;;;;;;;;;;;6.48;100.00;97555.18;105478;1283;61103;-56
2023/12/21 12:53:17;;;;;;;;;;;;;;;6.47;100.00;97549.24;105542;1285;63225;-54
2023/12/21 12:56:04;;;;;;;;;;;;;;;6.47;100.00;97541.88;105487;1283;74982;-55
2023/12/21 12:58:49;;;;;;;;;;;;;;;6.47;100.00;97524.60;106694;1283;71985;-57
2023/12/21 13:01:35;;;;;;;;;;;;;;;6.47;100.00;97516.05;106705;1283;71416;-55
2023/12/21 13:04:21;;;;;;;;;;;;;;;6.48;100.00;97511.71;105430;1283;61266;-55
2023/12/21 13:07:08;;;;;;;;;;;;;;;6.48;100.00;97495.45;105600;1283;61116;-55
2023/12/21 13:09:54;;;;;;;;;;;;;;;6.50;100.00;97480.67;105610;1283;73243;-56
2023/12/21 13:12:40;;;;;;;;;;;;;;;6.50;100.00;97474.48;105534;1288;70549;-55
2023/12/21 13:15:27;;;;;;;;;;;;;;;6.51;100.00;97468.27;105607;1283;70339;-53
2023/12/21 13:18:13;;;;;;;;;;;;;;;6.52;100.00;97456.94;105525;1286;61176;-55
2023/12/21 13:20:59;;;;;;;;;;;;;;;6.52;100.00;97449.38;105554;1283;61112;-56
2023/12/21 13:23:45;;;;;;;;;;;;;;;6.54;100.00;97441.44;105542;1284;73465;-55
2023/12/21 13:26:31;;;;;;;;;;;;;;;6.53;100.00;97433.09;105580;1284;68168;-53
2023/12/21 13:29:18;;;;;;;;;;;;;;;6.56;100.00;97428.52;105554;1288;73164;-56
2023/12/21 13:32:05;;;;;;;;;;;;;;;6.56;100.00;97417.55;105594;1286;61173;-55
2023/12/21 13:34:51;;;;;;;;;;;;;;;6.58;100.00;97409.05;105622;1283;61173;-56
2023/12/21 13:37:37;;;;;;;;;;;;;;;6.58;100.00;97398.64;105629;1283;73353;-56
2023/12/21 13:40:27;;;;;;;;;;;;;;;6.58;100.00;97398.11;105566;1283;67229;-56
2023/12/21 13:43:13;;;;;;;;;;;;;;;6.62;100.00;97382.67;105632;1283;75425;-54
2023/12/21 13:46:00;;;;;;;;;;;;;;;6.62;100.00;97376.81;98388;1283;10002316;-56
2023/12/21 13:48:47;;;;;;;;;;;;;;;6.62;100.00;97366.05;106143;1283;347638;-56
2023/12/21 13:51:33;;;;;;;;;;;;;;;6.63;100.00;97364.96;106769;1285;68399;-56
2023/12/21 13:54:21;;;;;;;;;;;;;;;6.65;100.00;97358.91;106879;1283;71396;-57
2023/12/21 13:57:07;;;;;;;;;;;;;;;6.65;100.00;97352.23;106889;1283;59000;-55
2023/12/21 13:59:52;;;;;;;;;;;;;;;6.66;100.00;97344.98;106772;1283;58998;-54
2023/12/21 14:02:38;;;;;;;;;;;;;;;6.69;100.00;97350.33;105571;1283;74342;-53
2023/12/21 14:05:25;;;;;;;;;;;;;;;6.69;100.00;97349.99;105593;1283;69350;-55
2023/12/21 14:08:11;;;;;;;;;;;;;;;6.69;100.00;97343.29;105544;1286;71011;-53
2023/12/21 14:10:57;;;;;;;;;;;;;;;6.71;100.00;97325.40;105557;1288;61201;-55
2023/12/21 14:13:43;;;;;;;;;;;;;;;6.70;100.00;97314.11;105543;1283;61423;-54
2023/12/21 14:16:30;;;;;;;;;;;;;;;6.70;100.00;97304.21;105573;1283;74711;-55